sensor_id;sensor_type;location;lat;lon;timestamp;temperature;humidity
2721;DHT22;1368;49.484;11.112;2022-10-18T00:01:12;15.20;99.90
2721;DHT22;1368;49.484;11.112;2022-10-18T00:03:38;14.80;99.90
2721;DHT22;1368;49.484;11.112;2022-10-18T00:06:04;14.80;99.90
2721;DHT22;1368;49.484;11.112;2022-10-18T00:08:31;14.80;99.90
2721;DHT22;1368;49.484;11.112;2022-10-18T00:10:57;14.80;99.90
2721;DHT22;1368;49.484;11.112;2022-10-18T00:13:22;15.00;99.90
2721;DHT22;1368;49.484;11.112;2022-10-18T00:15:57;14.90;99.90
2721;DHT22;1368;49.484;11.112;2022-10-18T00:18:22;15.00;99.90
2721;DHT22;1368;49.484;11.112;2022-10-18T00:21:05;15.40;99.90
2721;DHT22;1368;49.484;11.112;2022-10-18T00:23:32;14.90;99.90
2721;DHT22;1368;49.484;11.112;2022-10-18T00:26:00;15.40;99.90
2721;DHT22;1368;49.484;11.112;2022-10-18T00:28:25;15.00;99.90
2721;DHT22;1368;49.484;11.112;2022-10-18T00:30:51;15.20;99.90
2721;DHT22;1368;49.484;11.112;2022-10-18T00:33:17;15.10;99.90
2721;DHT22;1368;49.484;11.112;2022-10-18T00:35:42;14.90;99.90
2721;DHT22;1368;49.484;11.112;2022-10-18T00:38:08;15.00;99.90
2721;DHT22;1368;49.484;11.112;2022-10-18T00:40:33;14.90;99.90
2721;DHT22;1368;49.484;11.112;2022-10-18T00:42:59;15.00;99.90
2721;DHT22;1368;49.484;11.112;2022-10-18T00:45:25;15.10;99.90
2721;DHT22;1368;49.484;11.112;2022-10-18T00:47:57;14.70;99.90
2721;DHT22;1368;49.484;11.112;2022-10-18T00:50:24;14.70;99.90
2721;DHT22;1368;49.484;11.112;2022-10-18T00:52:56;14.70;99.90
2721;DHT22;1368;49.484;11.112;2022-10-18T00:55:26;14.90;99.90
2721;DHT22;1368;49.484;11.112;2022-10-18T00:57:53;14.50;99.90
2721;DHT22;1368;49.484;11.112;2022-10-18T01:00:19;14.40;99.90
2721;DHT22;1368;49.484;11.112;2022-10-18T01:02:45;14.40;99.90
2721;DHT22;1368;49.484;11.112;2022-10-18T01:05:17;14.60;99.90
2721;DHT22;1368;49.484;11.112;2022-10-18T01:18:35;14.80;99.90
2721;DHT22;1368;49.484;11.112;2022-10-18T01:21:36;14.80;99.90
2721;DHT22;1368;49.484;11.112;2022-10-18T01:25:19;14.70;99.90
2721;DHT22;1368;49.484;11.112;2022-10-18T01:32:38;14.40;99.90
2721;DHT22;1368;49.484;11.112;2022-10-18T01:35:10;14.40;99.90
2721;DHT22;1368;49.484;11.112;2022-10-18T01:37:37;15.10;99.90
2721;DHT22;1368;49.484;11.112;2022-10-18T01:40:04;14.90;99.90
2721;DHT22;1368;49.484;11.112;2022-10-18T01:42:31;14.70;99.90
2721;DHT22;1368;49.484;11.112;2022-10-18T01:44:58;14.70;99.90
2721;DHT22;1368;49.484;11.112;2022-10-18T01:47:24;14.80;99.90
2721;DHT22;1368;49.484;11.112;2022-10-18T01:50:02;14.30;99.90
2721;DHT22;1368;49.484;11.112;2022-10-18T01:52:28;14.10;99.90
2721;DHT22;1368;49.484;11.112;2022-10-18T01:54:54;14.40;99.90
2721;DHT22;1368;49.484;11.112;2022-10-18T01:57:35;14.10;99.90
2721;DHT22;1368;49.484;11.112;2022-10-18T02:00:13;13.90;99.90
2721;DHT22;1368;49.484;11.112;2022-10-18T02:02:49;13.60;99.90
2721;DHT22;1368;49.484;11.112;2022-10-18T02:05:29;13.60;99.90
2721;DHT22;1368;49.484;11.112;2022-10-18T02:08:03;13.70;99.90
2721;DHT22;1368;49.484;11.112;2022-10-18T02:10:40;13.90;99.90
2721;DHT22;1368;49.484;11.112;2022-10-18T02:13:08;13.90;99.90
2721;DHT22;1368;49.484;11.112;2022-10-18T02:15:38;13.90;99.90
2721;DHT22;1368;49.484;11.112;2022-10-18T02:18:10;13.80;99.90
2721;DHT22;1368;49.484;11.112;2022-10-18T02:20:37;13.80;99.90
2721;DHT22;1368;49.484;11.112;2022-10-18T02:23:05;13.80;99.90
2721;DHT22;1368;49.484;11.112;2022-10-18T02:25:33;13.70;99.90
2721;DHT22;1368;49.484;11.112;2022-10-18T02:27:59;13.80;99.90
2721;DHT22;1368;49.484;11.112;2022-10-18T02:30:43;13.90;99.90
2721;DHT22;1368;49.484;11.112;2022-10-18T02:33:18;13.80;99.90
2721;DHT22;1368;49.484;11.112;2022-10-18T02:35:52;13.60;99.90
2721;DHT22;1368;49.484;11.112;2022-10-18T02:38:22;13.60;99.90
2721;DHT22;1368;49.484;11.112;2022-10-18T02:40:49;13.60;99.90
2721;DHT22;1368;49.484;11.112;2022-10-18T02:43:14;13.60;99.90
2721;DHT22;1368;49.484;11.112;2022-10-18T02:45:40;13.50;99.90
2721;DHT22;1368;49.484;11.112;2022-10-18T02:48:06;13.70;99.90
2721;DHT22;1368;49.484;11.112;2022-10-18T02:50:32;13.80;99.90
2721;DHT22;1368;49.484;11.112;2022-10-18T02:52:57;13.80;99.90
2721;DHT22;1368;49.484;11.112;2022-10-18T02:55:23;13.90;99.90
2721;DHT22;1368;49.484;11.112;2022-10-18T02:57:48;13.70;99.90
2721;DHT22;1368;49.484;11.112;2022-10-18T03:00:14;13.80;99.90
2721;DHT22;1368;49.484;11.112;2022-10-18T03:02:40;13.80;99.90
2721;DHT22;1368;49.484;11.112;2022-10-18T03:05:05;13.70;99.90
2721;DHT22;1368;49.484;11.112;2022-10-18T03:07:31;13.70;99.90
2721;DHT22;1368;49.484;11.112;2022-10-18T03:09:56;14.30;99.90
2721;DHT22;1368;49.484;11.112;2022-10-18T03:12:22;13.90;99.90
2721;DHT22;1368;49.484;11.112;2022-10-18T03:14:47;13.90;99.90
2721;DHT22;1368;49.484;11.112;2022-10-18T03:17:13;13.90;99.90
2721;DHT22;1368;49.484;11.112;2022-10-18T03:19:39;14.00;99.90
2721;DHT22;1368;49.484;11.112;2022-10-18T03:22:04;13.90;99.90
2721;DHT22;1368;49.484;11.112;2022-10-18T03:24:30;13.80;99.90
2721;DHT22;1368;49.484;11.112;2022-10-18T03:26:55;13.70;99.90
2721;DHT22;1368;49.484;11.112;2022-10-18T03:29:21;13.70;99.90
2721;DHT22;1368;49.484;11.112;2022-10-18T03:31:47;13.70;99.90
2721;DHT22;1368;49.484;11.112;2022-10-18T03:34:12;14.10;99.90
2721;DHT22;1368;49.484;11.112;2022-10-18T03:36:40;13.60;99.90
2721;DHT22;1368;49.484;11.112;2022-10-18T03:39:06;13.70;99.90
2721;DHT22;1368;49.484;11.112;2022-10-18T03:41:32;13.40;99.90
2721;DHT22;1368;49.484;11.112;2022-10-18T03:43:57;13.50;99.90
2721;DHT22;1368;49.484;11.112;2022-10-18T03:46:23;13.40;99.90
2721;DHT22;1368;49.484;11.112;2022-10-18T03:48:48;13.30;99.90
2721;DHT22;1368;49.484;11.112;2022-10-18T03:51:14;13.10;99.90
2721;DHT22;1368;49.484;11.112;2022-10-18T03:53:39;12.90;99.90
2721;DHT22;1368;49.484;11.112;2022-10-18T03:56:05;13.00;99.90
2721;DHT22;1368;49.484;11.112;2022-10-18T03:58:31;13.00;99.90
2721;DHT22;1368;49.484;11.112;2022-10-18T04:00:56;13.00;99.90
2721;DHT22;1368;49.484;11.112;2022-10-18T04:03:22;13.30;99.90
2721;DHT22;1368;49.484;11.112;2022-10-18T04:05:48;12.80;99.90
2721;DHT22;1368;49.484;11.112;2022-10-18T04:08:15;12.90;99.90
2721;DHT22;1368;49.484;11.112;2022-10-18T04:10:41;12.80;99.90
2721;DHT22;1368;49.484;11.112;2022-10-18T04:13:07;12.90;99.90
2721;DHT22;1368;49.484;11.112;2022-10-18T04:15:33;13.10;99.90
2721;DHT22;1368;49.484;11.112;2022-10-18T04:17:59;13.10;99.90
2721;DHT22;1368;49.484;11.112;2022-10-18T04:20:25;13.10;99.90
2721;DHT22;1368;49.484;11.112;2022-10-18T04:22:51;13.20;99.90
2721;DHT22;1368;49.484;11.112;2022-10-18T04:25:20;13.10;99.90
2721;DHT22;1368;49.484;11.112;2022-10-18T04:27:46;13.30;99.90
2721;DHT22;1368;49.484;11.112;2022-10-18T04:30:11;13.30;99.90
2721;DHT22;1368;49.484;11.112;2022-10-18T04:32:37;13.20;99.90
2721;DHT22;1368;49.484;11.112;2022-10-18T04:35:03;13.50;99.90
2721;DHT22;1368;49.484;11.112;2022-10-18T04:37:30;13.60;99.90
2721;DHT22;1368;49.484;11.112;2022-10-18T04:39:55;13.70;99.90
2721;DHT22;1368;49.484;11.112;2022-10-18T04:42:21;13.90;99.90
2721;DHT22;1368;49.484;11.112;2022-10-18T04:44:47;13.90;99.90
2721;DHT22;1368;49.484;11.112;2022-10-18T04:47:13;14.10;99.90
2721;DHT22;1368;49.484;11.112;2022-10-18T04:49:38;14.10;99.90
2721;DHT22;1368;49.484;11.112;2022-10-18T04:52:04;14.00;99.90
2721;DHT22;1368;49.484;11.112;2022-10-18T04:54:29;14.30;99.90
2721;DHT22;1368;49.484;11.112;2022-10-18T04:56:55;14.00;99.90
2721;DHT22;1368;49.484;11.112;2022-10-18T04:59:20;14.00;99.90
2721;DHT22;1368;49.484;11.112;2022-10-18T05:01:46;13.90;99.90
2721;DHT22;1368;49.484;11.112;2022-10-18T05:04:12;13.80;99.90
2721;DHT22;1368;49.484;11.112;2022-10-18T05:06:37;13.60;99.90
2721;DHT22;1368;49.484;11.112;2022-10-18T05:09:03;13.50;99.90
2721;DHT22;1368;49.484;11.112;2022-10-18T05:11:29;13.50;99.90
2721;DHT22;1368;49.484;11.112;2022-10-18T05:13:54;13.50;99.90
2721;DHT22;1368;49.484;11.112;2022-10-18T05:16:20;13.50;99.90
2721;DHT22;1368;49.484;11.112;2022-10-18T05:18:45;13.70;99.90
2721;DHT22;1368;49.484;11.112;2022-10-18T05:21:11;13.70;99.90
2721;DHT22;1368;49.484;11.112;2022-10-18T05:23:38;13.60;99.90
2721;DHT22;1368;49.484;11.112;2022-10-18T05:26:05;13.60;99.90
2721;DHT22;1368;49.484;11.112;2022-10-18T05:28:31;13.70;99.90
2721;DHT22;1368;49.484;11.112;2022-10-18T05:31:04;13.60;99.90
2721;DHT22;1368;49.484;11.112;2022-10-18T05:33:31;13.70;99.90
2721;DHT22;1368;49.484;11.112;2022-10-18T05:35:56;13.60;99.90
2721;DHT22;1368;49.484;11.112;2022-10-18T05:38:22;13.70;99.90
2721;DHT22;1368;49.484;11.112;2022-10-18T05:40:48;13.70;99.90
2721;DHT22;1368;49.484;11.112;2022-10-18T05:43:13;14.00;99.90
2721;DHT22;1368;49.484;11.112;2022-10-18T05:45:45;14.00;99.90
2721;DHT22;1368;49.484;11.112;2022-10-18T05:48:11;14.20;99.90
2721;DHT22;1368;49.484;11.112;2022-10-18T05:50:36;14.20;99.90
2721;DHT22;1368;49.484;11.112;2022-10-18T05:53:02;14.30;99.90
2721;DHT22;1368;49.484;11.112;2022-10-18T05:55:27;14.40;99.90
2721;DHT22;1368;49.484;11.112;2022-10-18T05:57:53;14.50;99.90
2721;DHT22;1368;49.484;11.112;2022-10-18T06:00:18;14.50;99.90
2721;DHT22;1368;49.484;11.112;2022-10-18T06:02:44;14.50;99.90
2721;DHT22;1368;49.484;11.112;2022-10-18T06:05:09;14.70;99.90
2721;DHT22;1368;49.484;11.112;2022-10-18T06:07:35;14.60;99.90
2721;DHT22;1368;49.484;11.112;2022-10-18T06:10:00;15.10;99.90
2721;DHT22;1368;49.484;11.112;2022-10-18T06:12:26;14.80;99.90
2721;DHT22;1368;49.484;11.112;2022-10-18T06:14:52;15.30;99.90
2721;DHT22;1368;49.484;11.112;2022-10-18T06:17:17;14.90;99.90
2721;DHT22;1368;49.484;11.112;2022-10-18T06:19:43;15.00;99.90
2721;DHT22;1368;49.484;11.112;2022-10-18T06:22:10;14.60;99.90
2721;DHT22;1368;49.484;11.112;2022-10-18T06:24:35;14.70;99.90
2721;DHT22;1368;49.484;11.112;2022-10-18T06:27:01;14.80;99.90
2721;DHT22;1368;49.484;11.112;2022-10-18T06:29:32;14.70;99.90
2721;DHT22;1368;49.484;11.112;2022-10-18T06:31:58;14.50;99.90
2721;DHT22;1368;49.484;11.112;2022-10-18T06:34:23;14.30;99.90
2721;DHT22;1368;49.484;11.112;2022-10-18T06:36:49;14.40;99.90
2721;DHT22;1368;49.484;11.112;2022-10-18T06:39:14;14.40;99.90
2721;DHT22;1368;49.484;11.112;2022-10-18T06:41:40;15.00;99.90
2721;DHT22;1368;49.484;11.112;2022-10-18T06:44:05;14.50;99.90
2721;DHT22;1368;49.484;11.112;2022-10-18T06:46:39;14.40;99.90
2721;DHT22;1368;49.484;11.112;2022-10-18T06:49:05;14.50;99.90
2721;DHT22;1368;49.484;11.112;2022-10-18T06:51:31;14.70;99.90
2721;DHT22;1368;49.484;11.112;2022-10-18T06:53:56;14.80;99.90
2721;DHT22;1368;49.484;11.112;2022-10-18T06:56:22;15.30;99.90
2721;DHT22;1368;49.484;11.112;2022-10-18T06:58:47;15.50;99.90
2721;DHT22;1368;49.484;11.112;2022-10-18T07:01:14;15.30;99.90
2721;DHT22;1368;49.484;11.112;2022-10-18T07:03:41;15.80;99.90
2721;DHT22;1368;49.484;11.112;2022-10-18T07:06:08;15.40;99.90
2721;DHT22;1368;49.484;11.112;2022-10-18T07:08:35;15.40;99.90
2721;DHT22;1368;49.484;11.112;2022-10-18T07:11:00;15.30;99.90
2721;DHT22;1368;49.484;11.112;2022-10-18T07:13:28;15.40;99.90
2721;DHT22;1368;49.484;11.112;2022-10-18T07:16:03;15.40;99.90
2721;DHT22;1368;49.484;11.112;2022-10-18T07:18:31;15.50;99.90
2721;DHT22;1368;49.484;11.112;2022-10-18T07:21:00;16.00;99.90
2721;DHT22;1368;49.484;11.112;2022-10-18T07:23:26;15.70;99.90
2721;DHT22;1368;49.484;11.112;2022-10-18T07:25:51;15.70;99.90
2721;DHT22;1368;49.484;11.112;2022-10-18T07:28:17;15.80;99.90
2721;DHT22;1368;49.484;11.112;2022-10-18T07:30:42;15.90;99.90
2721;DHT22;1368;49.484;11.112;2022-10-18T07:33:08;16.40;99.90
2721;DHT22;1368;49.484;11.112;2022-10-18T07:35:33;16.00;99.90
2721;DHT22;1368;49.484;11.112;2022-10-18T07:37:59;16.10;99.90
2721;DHT22;1368;49.484;11.112;2022-10-18T07:40:24;16.10;99.90
2721;DHT22;1368;49.484;11.112;2022-10-18T07:42:50;16.30;99.90
2721;DHT22;1368;49.484;11.112;2022-10-18T07:45:16;16.40;99.90
2721;DHT22;1368;49.484;11.112;2022-10-18T07:47:41;16.40;99.90
2721;DHT22;1368;49.484;11.112;2022-10-18T07:50:07;17.20;99.90
2721;DHT22;1368;49.484;11.112;2022-10-18T07:52:33;17.10;99.90
2721;DHT22;1368;49.484;11.112;2022-10-18T07:54:58;17.40;99.90
2721;DHT22;1368;49.484;11.112;2022-10-18T07:57:24;17.70;99.90
2721;DHT22;1368;49.484;11.112;2022-10-18T07:59:49;17.80;99.90
2721;DHT22;1368;49.484;11.112;2022-10-18T08:02:21;18.00;99.90
2721;DHT22;1368;49.484;11.112;2022-10-18T08:04:46;18.70;99.90
2721;DHT22;1368;49.484;11.112;2022-10-18T08:07:12;18.50;99.90
2721;DHT22;1368;49.484;11.112;2022-10-18T08:09:38;18.60;99.90
2721;DHT22;1368;49.484;11.112;2022-10-18T08:12:03;19.00;99.90
2721;DHT22;1368;49.484;11.112;2022-10-18T08:14:29;19.00;99.90
2721;DHT22;1368;49.484;11.112;2022-10-18T08:16:54;19.30;99.90
2721;DHT22;1368;49.484;11.112;2022-10-18T08:19:20;19.60;99.90
2721;DHT22;1368;49.484;11.112;2022-10-18T08:21:46;20.70;99.90
2721;DHT22;1368;49.484;11.112;2022-10-18T08:24:11;21.20;99.90
2721;DHT22;1368;49.484;11.112;2022-10-18T08:26:37;22.20;99.90
2721;DHT22;1368;49.484;11.112;2022-10-18T08:29:02;22.80;99.90
2721;DHT22;1368;49.484;11.112;2022-10-18T08:31:28;23.60;99.90
2721;DHT22;1368;49.484;11.112;2022-10-18T08:33:54;24.10;99.90
2721;DHT22;1368;49.484;11.112;2022-10-18T08:36:21;24.90;99.90
2721;DHT22;1368;49.484;11.112;2022-10-18T08:38:47;25.30;99.90
2721;DHT22;1368;49.484;11.112;2022-10-18T08:41:42;25.90;99.90
2721;DHT22;1368;49.484;11.112;2022-10-18T08:44:19;26.30;99.90
2721;DHT22;1368;49.484;11.112;2022-10-18T08:46:48;26.10;99.90
2721;DHT22;1368;49.484;11.112;2022-10-18T08:51:51;26.60;99.90
2721;DHT22;1368;49.484;11.112;2022-10-18T08:57:03;26.70;99.90
2721;DHT22;1368;49.484;11.112;2022-10-18T08:59:37;26.70;99.90
2721;DHT22;1368;49.484;11.112;2022-10-18T09:07:30;27.10;99.90
2721;DHT22;1368;49.484;11.112;2022-10-18T09:15:58;27.50;99.90
2721;DHT22;1368;49.484;11.112;2022-10-18T09:20:57;27.40;99.90
2721;DHT22;1368;49.484;11.112;2022-10-18T09:23:57;27.50;99.90
2721;DHT22;1368;49.484;11.112;2022-10-18T09:26:38;27.40;99.90
2721;DHT22;1368;49.484;11.112;2022-10-18T09:32:01;27.50;99.90
2721;DHT22;1368;49.484;11.112;2022-10-18T09:34:57;27.60;99.90
2721;DHT22;1368;49.484;11.112;2022-10-18T09:37:26;27.90;99.90
2721;DHT22;1368;49.484;11.112;2022-10-18T09:39:59;28.00;99.90
2721;DHT22;1368;49.484;11.112;2022-10-18T09:42:34;27.80;99.90
2721;DHT22;1368;49.484;11.112;2022-10-18T09:50:45;27.50;99.90
2721;DHT22;1368;49.484;11.112;2022-10-18T09:53:31;27.50;99.90
2721;DHT22;1368;49.484;11.112;2022-10-18T09:56:07;27.60;99.90
2721;DHT22;1368;49.484;11.112;2022-10-18T09:58:45;27.30;99.90
2721;DHT22;1368;49.484;11.112;2022-10-18T10:01:27;27.30;99.90
2721;DHT22;1368;49.484;11.112;2022-10-18T10:03:52;27.30;99.90
2721;DHT22;1368;49.484;11.112;2022-10-18T10:09:14;27.20;99.90
2721;DHT22;1368;49.484;11.112;2022-10-18T10:11:50;27.00;99.90
2721;DHT22;1368;49.484;11.112;2022-10-18T10:14:21;27.00;99.90
2721;DHT22;1368;49.484;11.112;2022-10-18T10:19:23;26.70;99.90
2721;DHT22;1368;49.484;11.112;2022-10-18T10:21:50;26.40;99.90
2721;DHT22;1368;49.484;11.112;2022-10-18T10:24:24;26.10;99.90
2721;DHT22;1368;49.484;11.112;2022-10-18T10:26:58;26.10;99.90
2721;DHT22;1368;49.484;11.112;2022-10-18T10:32:17;26.30;99.90
2721;DHT22;1368;49.484;11.112;2022-10-18T10:34:42;26.30;99.90
2721;DHT22;1368;49.484;11.112;2022-10-18T10:37:35;26.30;99.90
2721;DHT22;1368;49.484;11.112;2022-10-18T10:42:36;26.10;99.90
2721;DHT22;1368;49.484;11.112;2022-10-18T10:45:03;26.10;99.90
2721;DHT22;1368;49.484;11.112;2022-10-18T10:47:33;25.80;99.90
2721;DHT22;1368;49.484;11.112;2022-10-18T10:50:09;25.70;99.90
2721;DHT22;1368;49.484;11.112;2022-10-18T10:52:36;25.60;99.90
2721;DHT22;1368;49.484;11.112;2022-10-18T10:55:03;25.50;99.90
2721;DHT22;1368;49.484;11.112;2022-10-18T10:57:29;25.40;99.90
2721;DHT22;1368;49.484;11.112;2022-10-18T10:59:57;25.10;99.90
2721;DHT22;1368;49.484;11.112;2022-10-18T11:02:33;24.60;99.90
2721;DHT22;1368;49.484;11.112;2022-10-18T11:05:41;24.20;99.90
2721;DHT22;1368;49.484;11.112;2022-10-18T11:08:08;23.70;99.90
2721;DHT22;1368;49.484;11.112;2022-10-18T11:10:42;23.30;99.90
2721;DHT22;1368;49.484;11.112;2022-10-18T11:19:15;22.80;99.90
2721;DHT22;1368;49.484;11.112;2022-10-18T11:21:45;22.60;99.90
2721;DHT22;1368;49.484;11.112;2022-10-18T11:24:14;22.50;99.90
2721;DHT22;1368;49.484;11.112;2022-10-18T11:29:21;22.40;99.90
2721;DHT22;1368;49.484;11.112;2022-10-18T11:32:14;21.70;99.90
2721;DHT22;1368;49.484;11.112;2022-10-18T11:43:07;19.90;99.90
2721;DHT22;1368;49.484;11.112;2022-10-18T11:48:34;19.90;99.90
2721;DHT22;1368;49.484;11.112;2022-10-18T12:01:59;20.10;99.90
2721;DHT22;1368;49.484;11.112;2022-10-18T12:04:33;20.10;99.90
2721;DHT22;1368;49.484;11.112;2022-10-18T12:07:00;20.20;99.90
2721;DHT22;1368;49.484;11.112;2022-10-18T12:09:40;20.30;99.90
2721;DHT22;1368;49.484;11.112;2022-10-18T12:12:27;20.40;99.90
2721;DHT22;1368;49.484;11.112;2022-10-18T12:14:56;20.50;99.90
2721;DHT22;1368;49.484;11.112;2022-10-18T12:19:57;20.50;99.90
2721;DHT22;1368;49.484;11.112;2022-10-18T12:22:35;20.60;99.90
2721;DHT22;1368;49.484;11.112;2022-10-18T12:25:01;21.20;99.90
2721;DHT22;1368;49.484;11.112;2022-10-18T12:27:53;20.50;99.90
2721;DHT22;1368;49.484;11.112;2022-10-18T12:30:36;20.90;99.90
2721;DHT22;1368;49.484;11.112;2022-10-18T12:33:13;20.70;99.90
2721;DHT22;1368;49.484;11.112;2022-10-18T12:38:37;21.00;99.90
2721;DHT22;1368;49.484;11.112;2022-10-18T12:41:05;21.10;99.90
2721;DHT22;1368;49.484;11.112;2022-10-18T12:43:32;21.20;99.90
2721;DHT22;1368;49.484;11.112;2022-10-18T12:46:06;21.20;99.90
2721;DHT22;1368;49.484;11.112;2022-10-18T12:48:43;21.10;99.90
2721;DHT22;1368;49.484;11.112;2022-10-18T12:51:17;20.90;99.90
2721;DHT22;1368;49.484;11.112;2022-10-18T12:53:45;20.70;99.90
2721;DHT22;1368;49.484;11.112;2022-10-18T13:09:27;21.30;99.90
2721;DHT22;1368;49.484;11.112;2022-10-18T13:11:57;21.50;99.90
2721;DHT22;1368;49.484;11.112;2022-10-18T13:30:54;22.20;99.90
2721;DHT22;1368;49.484;11.112;2022-10-18T13:33:40;22.10;99.90
2721;DHT22;1368;49.484;11.112;2022-10-18T13:41:31;21.80;99.90
2721;DHT22;1368;49.484;11.112;2022-10-18T14:14:39;21.40;99.90
2721;DHT22;1368;49.484;11.112;2022-10-18T14:19:48;21.70;99.90
2721;DHT22;1368;49.484;11.112;2022-10-18T14:22:22;21.60;99.90
2721;DHT22;1368;49.484;11.112;2022-10-18T14:24:55;21.60;99.90
2721;DHT22;1368;49.484;11.112;2022-10-18T14:27:30;21.80;99.90
2721;DHT22;1368;49.484;11.112;2022-10-18T14:30:18;21.80;99.90
2721;DHT22;1368;49.484;11.112;2022-10-18T14:32:50;21.70;99.90
2721;DHT22;1368;49.484;11.112;2022-10-18T14:35:27;21.80;99.90
2721;DHT22;1368;49.484;11.112;2022-10-18T14:37:54;21.90;99.90
2721;DHT22;1368;49.484;11.112;2022-10-18T14:40:35;22.50;99.90
2721;DHT22;1368;49.484;11.112;2022-10-18T14:43:17;22.30;99.90
2721;DHT22;1368;49.484;11.112;2022-10-18T14:45:43;22.30;99.90
2721;DHT22;1368;49.484;11.112;2022-10-18T14:48:21;22.20;99.90
2721;DHT22;1368;49.484;11.112;2022-10-18T14:50:54;22.40;99.90
2721;DHT22;1368;49.484;11.112;2022-10-18T14:53:24;22.30;99.90
2721;DHT22;1368;49.484;11.112;2022-10-18T14:55:57;22.20;99.90
2721;DHT22;1368;49.484;11.112;2022-10-18T14:58:28;22.10;99.90
2721;DHT22;1368;49.484;11.112;2022-10-18T15:00:54;22.50;99.90
2721;DHT22;1368;49.484;11.112;2022-10-18T15:03:20;22.00;99.90
2721;DHT22;1368;49.484;11.112;2022-10-18T15:05:55;22.10;99.90
2721;DHT22;1368;49.484;11.112;2022-10-18T15:08:23;22.00;99.90
2721;DHT22;1368;49.484;11.112;2022-10-18T15:10:49;21.90;99.90
2721;DHT22;1368;49.484;11.112;2022-10-18T15:13:15;21.70;99.90
2721;DHT22;1368;49.484;11.112;2022-10-18T15:15:42;21.50;99.90
2721;DHT22;1368;49.484;11.112;2022-10-18T15:18:24;21.50;99.90
2721;DHT22;1368;49.484;11.112;2022-10-18T15:23:40;21.60;99.90
2721;DHT22;1368;49.484;11.112;2022-10-18T15:26:08;21.60;99.90
2721;DHT22;1368;49.484;11.112;2022-10-18T15:28:39;21.50;99.90
2721;DHT22;1368;49.484;11.112;2022-10-18T15:31:26;21.50;99.90
2721;DHT22;1368;49.484;11.112;2022-10-18T15:34:05;21.50;99.90
2721;DHT22;1368;49.484;11.112;2022-10-18T15:36:31;21.40;99.90
2721;DHT22;1368;49.484;11.112;2022-10-18T15:39:05;21.40;99.90
2721;DHT22;1368;49.484;11.112;2022-10-18T15:44:22;21.30;99.90
2721;DHT22;1368;49.484;11.112;2022-10-18T15:46:51;21.20;99.90
2721;DHT22;1368;49.484;11.112;2022-10-18T15:52:26;21.60;99.90
2721;DHT22;1368;49.484;11.112;2022-10-18T15:54:41;20.90;99.90
2721;DHT22;1368;49.484;11.112;2022-10-18T15:57:08;20.90;99.90
2721;DHT22;1368;49.484;11.112;2022-10-18T15:59:34;20.80;99.90
2721;DHT22;1368;49.484;11.112;2022-10-18T16:02:00;20.80;99.90
2721;DHT22;1368;49.484;11.112;2022-10-18T16:04:28;20.70;99.90
2721;DHT22;1368;49.484;11.112;2022-10-18T16:06:54;20.70;99.90
2721;DHT22;1368;49.484;11.112;2022-10-18T16:09:22;20.50;99.90
2721;DHT22;1368;49.484;11.112;2022-10-18T16:11:48;20.50;99.90
2721;DHT22;1368;49.484;11.112;2022-10-18T16:14:17;21.00;99.90
2721;DHT22;1368;49.484;11.112;2022-10-18T16:16:44;20.20;99.90
2721;DHT22;1368;49.484;11.112;2022-10-18T16:19:15;20.10;99.90
2721;DHT22;1368;49.484;11.112;2022-10-18T16:21:43;20.00;99.90
2721;DHT22;1368;49.484;11.112;2022-10-18T16:24:09;20.00;99.90
2721;DHT22;1368;49.484;11.112;2022-10-18T16:26:35;19.80;99.90
2721;DHT22;1368;49.484;11.112;2022-10-18T16:29:01;19.80;99.90
2721;DHT22;1368;49.484;11.112;2022-10-18T16:31:30;19.80;99.90
2721;DHT22;1368;49.484;11.112;2022-10-18T16:33:56;19.70;99.90
2721;DHT22;1368;49.484;11.112;2022-10-18T16:36:24;19.70;99.90
2721;DHT22;1368;49.484;11.112;2022-10-18T16:38:50;19.60;99.90
2721;DHT22;1368;49.484;11.112;2022-10-18T16:41:16;19.60;99.90
2721;DHT22;1368;49.484;11.112;2022-10-18T16:43:43;20.00;99.90
2721;DHT22;1368;49.484;11.112;2022-10-18T16:46:15;19.50;99.90
2721;DHT22;1368;49.484;11.112;2022-10-18T16:48:41;19.50;99.90
2721;DHT22;1368;49.484;11.112;2022-10-18T16:51:11;19.40;99.90
2721;DHT22;1368;49.484;11.112;2022-10-18T16:53:37;19.40;99.90
2721;DHT22;1368;49.484;11.112;2022-10-18T16:56:04;19.40;99.90
2721;DHT22;1368;49.484;11.112;2022-10-18T16:58:32;19.40;99.90
2721;DHT22;1368;49.484;11.112;2022-10-18T17:00:58;19.30;99.90
2721;DHT22;1368;49.484;11.112;2022-10-18T17:03:24;19.40;99.90
2721;DHT22;1368;49.484;11.112;2022-10-18T17:05:50;19.40;99.90
2721;DHT22;1368;49.484;11.112;2022-10-18T17:08:22;19.40;99.90
2721;DHT22;1368;49.484;11.112;2022-10-18T17:10:49;19.40;99.90
2721;DHT22;1368;49.484;11.112;2022-10-18T17:13:17;19.30;99.90
2721;DHT22;1368;49.484;11.112;2022-10-18T17:15:43;19.30;99.90
2721;DHT22;1368;49.484;11.112;2022-10-18T17:18:12;19.40;99.90
2721;DHT22;1368;49.484;11.112;2022-10-18T17:20:38;19.30;99.90
2721;DHT22;1368;49.484;11.112;2022-10-18T17:23:04;19.40;99.90
2721;DHT22;1368;49.484;11.112;2022-10-18T17:25:30;19.40;99.90
2721;DHT22;1368;49.484;11.112;2022-10-18T17:27:55;19.80;99.90
2721;DHT22;1368;49.484;11.112;2022-10-18T17:30:21;19.50;99.90
2721;DHT22;1368;49.484;11.112;2022-10-18T17:32:46;19.50;99.90
2721;DHT22;1368;49.484;11.112;2022-10-18T17:35:12;19.50;99.90
2721;DHT22;1368;49.484;11.112;2022-10-18T17:37:38;19.50;99.90
2721;DHT22;1368;49.484;11.112;2022-10-18T17:40:05;19.50;99.90
2721;DHT22;1368;49.484;11.112;2022-10-18T17:42:32;19.50;99.90
2721;DHT22;1368;49.484;11.112;2022-10-18T17:44:57;19.60;99.90
2721;DHT22;1368;49.484;11.112;2022-10-18T17:47:23;19.70;99.90
2721;DHT22;1368;49.484;11.112;2022-10-18T17:49:48;19.00;99.90
2721;DHT22;1368;49.484;11.112;2022-10-18T17:52:14;19.00;99.90
2721;DHT22;1368;49.484;11.112;2022-10-18T17:54:40;18.80;99.90
2721;DHT22;1368;49.484;11.112;2022-10-18T17:57:05;18.80;99.90
2721;DHT22;1368;49.484;11.112;2022-10-18T17:59:31;18.80;99.90
2721;DHT22;1368;49.484;11.112;2022-10-18T18:01:56;19.00;99.90
2721;DHT22;1368;49.484;11.112;2022-10-18T18:04:22;19.10;99.90
2721;DHT22;1368;49.484;11.112;2022-10-18T18:06:48;19.20;99.90
2721;DHT22;1368;49.484;11.112;2022-10-18T18:09:15;19.30;99.90
2721;DHT22;1368;49.484;11.112;2022-10-18T18:11:42;19.30;99.90
2721;DHT22;1368;49.484;11.112;2022-10-18T18:14:09;19.30;99.90
2721;DHT22;1368;49.484;11.112;2022-10-18T18:16:37;19.20;99.90
2721;DHT22;1368;49.484;11.112;2022-10-18T18:19:04;19.20;99.90
2721;DHT22;1368;49.484;11.112;2022-10-18T18:21:30;19.20;99.90
2721;DHT22;1368;49.484;11.112;2022-10-18T18:23:56;19.20;99.90
2721;DHT22;1368;49.484;11.112;2022-10-18T18:26:22;19.70;99.90
2721;DHT22;1368;49.484;11.112;2022-10-18T18:28:48;19.30;99.90
2721;DHT22;1368;49.484;11.112;2022-10-18T18:31:16;19.30;99.90
2721;DHT22;1368;49.484;11.112;2022-10-18T18:33:42;19.20;99.90
2721;DHT22;1368;49.484;11.112;2022-10-18T18:36:08;19.20;99.90
2721;DHT22;1368;49.484;11.112;2022-10-18T18:38:36;19.10;99.90
2721;DHT22;1368;49.484;11.112;2022-10-18T18:41:10;19.20;99.90
2721;DHT22;1368;49.484;11.112;2022-10-18T18:43:37;19.10;99.90